CPX107 Details

Departure: Ted Stevens Anchorage International Airport (PANC)
Arrival: Miami International Airport (KMIA)
Route: JOH J501 YAK NCA10 YQU J515 YEG SEFFY VLN J483 MOT ABR J45 FSD J45 DSM Q19 LAJUG Q19 BNA BULZI NICKI Q81 ENDEW JUULI SSCOT5


Current Weather Information
PANC 260053Z 20010KT 10SM FEW050 FEW100 BKN190 09/M06 A3007 RMK AO2 SLP183 ACSL DSNT S T00941061
KMIA 260053Z 14008KT 100V160 10SM FEW040 FEW140 BKN250 26/20 A2998 RMK AO2 SLP153 T02560200